createdAt,value
2022-12-03T00:00:18.515Z,6.53
2022-12-03T00:02:46.056Z,6.50
2022-12-03T00:05:13.629Z,7.47
2022-12-03T00:07:41.189Z,8.13
2022-12-03T00:10:11.114Z,6.10
2022-12-03T00:12:38.611Z,7.78
2022-12-03T00:15:07.876Z,7.53
2022-12-03T00:17:35.302Z,7.32
2022-12-03T00:20:02.765Z,5.38
2022-12-03T00:22:30.874Z,7.88
2022-12-03T00:24:59.447Z,6.40
2022-12-03T00:27:29.270Z,5.30
2022-12-03T00:29:57.549Z,5.80
2022-12-03T00:32:26.936Z,6.43
2022-12-03T00:34:55.089Z,8.30
2022-12-03T00:37:23.972Z,8.02
2022-12-03T00:39:52.024Z,8.07
2022-12-03T00:42:20.061Z,7.68
2022-12-03T00:44:51.414Z,7.47
2022-12-03T00:47:21.387Z,6.20
2022-12-03T00:49:50.312Z,7.72
2022-12-03T00:52:20.143Z,7.47
2022-12-03T00:54:48.694Z,5.05
2022-12-03T00:57:19.581Z,7.05
2022-12-03T00:59:48.173Z,6.15
2022-12-03T01:02:21.861Z,6.47
2022-12-03T01:04:51.437Z,6.15
2022-12-03T01:07:21.829Z,7.35
2022-12-03T01:09:50.907Z,7.15
2022-12-03T01:12:19.015Z,9.73
2022-12-03T01:14:46.863Z,5.57
2022-12-03T01:17:14.423Z,8.27
2022-12-03T01:19:48.246Z,6.45
2022-12-03T01:22:16.111Z,6.80
2022-12-03T01:24:43.549Z,7.72
2022-12-03T01:27:11.031Z,8.27
2022-12-03T01:29:38.546Z,6.80
2022-12-03T01:32:17.214Z,7.03
2022-12-03T01:34:46.492Z,6.88
2022-12-03T01:37:14.458Z,7.50
2022-12-03T01:39:42.267Z,9.43
2022-12-03T01:42:12.660Z,7.45
2022-12-03T01:44:41.287Z,7.88
2022-12-03T01:47:14.626Z,8.27
2022-12-03T01:49:47.901Z,7.88
2022-12-03T01:52:18.267Z,8.23
2022-12-03T01:54:48.655Z,5.78
2022-12-03T01:57:21.745Z,7.28
2022-12-03T01:59:50.113Z,9.18
2022-12-03T02:02:22.829Z,6.55
2022-12-03T02:04:54.089Z,7.78
2022-12-03T02:07:25.047Z,6.38
2022-12-03T02:09:53.359Z,8.02
2022-12-03T02:12:26.135Z,6.28
2022-12-03T02:14:54.479Z,6.88
2022-12-03T02:17:22.286Z,7.70
2022-12-03T02:19:51.207Z,6.90
2022-12-03T02:22:29.347Z,7.32
2022-12-03T02:25:14.261Z,7.10
2022-12-03T02:27:42.125Z,7.45
2022-12-03T02:30:12.064Z,8.15
2022-12-03T02:32:39.747Z,8.00
2022-12-03T02:35:13.435Z,6.80
2022-12-03T02:37:41.296Z,7.25
2022-12-03T02:40:12.487Z,6.70
2022-12-03T02:42:40.525Z,6.97
2022-12-03T02:45:12.087Z,6.00
2022-12-03T02:47:43.278Z,7.65
2022-12-03T02:50:14.791Z,7.43
2022-12-03T02:52:44.089Z,6.47
2022-12-03T02:55:13.659Z,6.47
2022-12-03T02:57:44.317Z,7.10
2022-12-03T03:00:13.340Z,8.95
2022-12-03T03:05:11.650Z,6.82
2022-12-03T03:07:40.556Z,7.22
2022-12-03T03:10:12.323Z,7.30
2022-12-03T03:12:40.243Z,7.50
2022-12-03T03:15:11.886Z,8.93
2022-12-03T03:17:41.910Z,7.45
2022-12-03T03:20:10.852Z,7.38
2022-12-03T03:22:40.979Z,6.68
2022-12-03T03:25:11.729Z,7.63
2022-12-03T03:27:40.657Z,8.95
2022-12-03T03:30:12.197Z,8.00
2022-12-03T03:32:41.033Z,7.50
2022-12-03T03:35:09.861Z,9.68
2022-12-03T03:37:37.707Z,6.93
2022-12-03T03:40:06.263Z,7.68
2022-12-03T03:42:34.235Z,5.85
2022-12-03T03:45:01.745Z,5.07
2022-12-03T03:47:30.701Z,7.57
2022-12-03T03:49:58.185Z,6.55
2022-12-03T03:52:25.997Z,7.47
2022-12-03T03:54:53.655Z,9.77
2022-12-03T03:57:21.310Z,7.95
2022-12-03T03:59:48.889Z,8.55
2022-12-03T04:02:19.683Z,5.47
2022-12-03T04:04:49.447Z,7.05
2022-12-03T04:07:17.130Z,8.68
2022-12-03T04:09:44.695Z,9.98
2022-12-03T04:12:30.720Z,6.63
2022-12-03T04:14:58.301Z,7.15
2022-12-03T04:17:25.738Z,8.38
2022-12-03T04:19:54.510Z,7.55
2022-12-03T04:22:39.816Z,9.55
2022-12-03T04:25:28.857Z,7.88
2022-12-03T04:28:14.035Z,7.93
2022-12-03T04:30:41.537Z,8.60
2022-12-03T04:33:26.875Z,6.60
2022-12-03T04:35:55.727Z,7.22
2022-12-03T04:38:23.290Z,9.05
2022-12-03T04:41:04.012Z,6.43
2022-12-03T04:43:33.268Z,7.55
2022-12-03T04:46:01.544Z,7.57
2022-12-03T04:48:29.093Z,7.50
2022-12-03T04:50:57.949Z,7.47
2022-12-03T04:53:25.424Z,8.18
2022-12-03T04:55:52.882Z,7.50
2022-12-03T04:58:20.294Z,8.77
2022-12-03T05:00:47.720Z,9.80
2022-12-03T05:03:15.186Z,6.50
2022-12-03T05:05:42.623Z,8.10
2022-12-03T05:08:11.471Z,8.10
2022-12-03T05:10:39.015Z,8.73
2022-12-03T05:13:06.522Z,7.25
2022-12-03T05:15:34.014Z,7.65
2022-12-03T05:18:01.480Z,8.20
2022-12-03T05:20:49.846Z,7.90
2022-12-03T05:23:22.219Z,7.55
2022-12-03T05:30:44.646Z,6.45
2022-12-03T05:33:12.138Z,4.35
2022-12-03T05:35:39.579Z,6.93
2022-12-03T05:38:07.040Z,6.40
2022-12-03T05:40:35.857Z,7.32
2022-12-03T05:43:02.345Z,9.73
2022-12-03T05:45:32.099Z,7.88
2022-12-03T05:48:00.822Z,7.80
2022-12-03T05:50:31.789Z,8.88
2022-12-03T05:53:00.243Z,5.43
2022-12-03T05:55:28.865Z,9.25
2022-12-03T05:57:57.879Z,5.72
2022-12-03T06:02:54.179Z,5.53
2022-12-03T06:05:22.574Z,5.60
2022-12-03T06:07:51.364Z,8.10
2022-12-03T06:10:22.536Z,6.65
2022-12-03T06:12:50.181Z,9.07
2022-12-03T06:15:19.919Z,8.82
2022-12-03T06:17:47.883Z,8.13
2022-12-03T06:20:17.002Z,9.27
2022-12-03T06:25:12.643Z,6.68
2022-12-03T06:27:40.152Z,9.57
2022-12-03T06:30:09.535Z,9.10
2022-12-03T06:32:40.668Z,7.95
2022-12-03T06:35:08.900Z,7.43
2022-12-03T06:37:36.351Z,8.00
2022-12-03T06:40:04.303Z,6.07
2022-12-03T06:42:31.769Z,6.35
2022-12-03T06:44:59.240Z,5.32
2022-12-03T06:47:26.832Z,8.90
2022-12-03T06:49:55.788Z,6.25
2022-12-03T06:52:23.967Z,4.00
2022-12-03T06:54:51.695Z,6.70
2022-12-03T06:57:19.446Z,7.22
2022-12-03T06:59:46.916Z,5.50
2022-12-03T07:02:14.368Z,19.10
2022-12-03T07:04:46.115Z,18.50
2022-12-03T07:07:15.650Z,9.13
2022-12-03T07:09:43.112Z,7.03
2022-12-03T07:12:10.572Z,7.78
2022-12-03T07:14:38.051Z,6.25
2022-12-03T07:17:05.504Z,7.53
2022-12-03T07:19:33.323Z,4.60
2022-12-03T07:22:00.903Z,8.00
2022-12-03T07:24:30.244Z,6.95
2022-12-03T07:26:57.860Z,6.82
2022-12-03T07:29:25.645Z,7.07
2022-12-03T07:31:53.416Z,8.88
2022-12-03T07:34:21.456Z,8.07
2022-12-03T07:36:48.940Z,9.20
2022-12-03T07:39:16.516Z,7.20
2022-12-03T07:41:45.318Z,8.88
2022-12-03T07:44:14.735Z,7.13
2022-12-03T07:46:42.969Z,8.20
2022-12-03T07:49:11.993Z,7.90
2022-12-03T07:51:39.656Z,6.95
2022-12-03T07:54:07.150Z,4.45
2022-12-03T07:56:34.671Z,10.18
2022-12-03T07:59:03.506Z,6.63
2022-12-03T08:01:30.959Z,7.57
2022-12-03T08:03:58.419Z,9.38
2022-12-03T08:06:25.950Z,8.52
2022-12-03T08:08:53.439Z,6.68
2022-12-03T08:11:21.084Z,8.50
2022-12-03T08:13:48.556Z,6.22
2022-12-03T08:16:19.323Z,7.80
2022-12-03T08:18:48.369Z,8.80
2022-12-03T08:21:18.729Z,8.27
2022-12-03T08:23:46.355Z,8.32
2022-12-03T08:26:21.972Z,10.38
2022-12-03T08:28:49.550Z,7.63
2022-12-03T08:31:21.262Z,8.15
2022-12-03T08:33:50.113Z,8.68
2022-12-03T08:36:21.876Z,9.45
2022-12-03T08:38:52.788Z,9.45
2022-12-03T08:41:42.152Z,9.07
2022-12-03T08:44:22.007Z,6.18
2022-12-03T08:46:54.944Z,9.77
2022-12-03T08:49:23.050Z,9.40
2022-12-03T08:51:57.096Z,7.72
2022-12-03T08:54:25.858Z,10.93
2022-12-03T08:56:53.342Z,8.25
2022-12-03T08:59:30.373Z,7.35
2022-12-03T09:02:00.056Z,8.20
2022-12-03T09:04:31.934Z,8.75
2022-12-03T09:06:59.551Z,7.28
2022-12-03T09:09:27.346Z,7.68
2022-12-03T09:11:55.265Z,8.90
2022-12-03T09:14:23.556Z,8.35
2022-12-03T09:16:55.368Z,9.00
2022-12-03T09:19:24.628Z,11.57
2022-12-03T09:24:19.755Z,6.97
2022-12-03T09:26:47.221Z,6.95
2022-12-03T09:29:14.872Z,8.38
2022-12-03T09:31:42.615Z,10.32
2022-12-03T09:34:10.157Z,9.38
2022-12-03T09:36:38.997Z,9.98
2022-12-03T09:39:06.612Z,9.18
2022-12-03T09:41:34.118Z,6.10
2022-12-03T09:44:04.481Z,8.50
2022-12-03T09:46:33.364Z,8.43
2022-12-03T09:49:01.753Z,7.72
2022-12-03T09:51:32.680Z,7.55
2022-12-03T09:54:02.297Z,6.60
2022-12-03T09:56:29.836Z,8.95
2022-12-03T09:58:57.320Z,8.93
2022-12-03T10:01:29.900Z,8.10
2022-12-03T10:03:58.364Z,8.32
2022-12-03T10:06:25.868Z,8.57
2022-12-03T10:08:55.781Z,6.75
2022-12-03T10:11:26.761Z,8.63
2022-12-03T10:13:55.173Z,7.00
2022-12-03T10:16:23.044Z,5.68
2022-12-03T10:18:53.325Z,5.68
2022-12-03T10:21:25.578Z,7.97
2022-12-03T10:24:21.859Z,11.13
2022-12-03T10:26:52.843Z,11.07
2022-12-03T10:29:21.705Z,9.93
2022-12-03T10:31:56.303Z,13.10
2022-12-03T10:34:30.410Z,9.00
2022-12-03T10:37:17.195Z,7.43
2022-12-03T10:39:56.815Z,7.75
2022-12-03T10:42:26.709Z,6.47
2022-12-03T10:45:22.456Z,10.05
2022-12-03T10:48:05.790Z,5.95
2022-12-03T10:50:34.332Z,6.38
2022-12-03T10:53:01.910Z,6.68
2022-12-03T10:55:34.932Z,5.25
2022-12-03T10:58:03.728Z,8.07
2022-12-03T11:00:31.171Z,7.22
2022-12-03T11:02:58.607Z,5.10
2022-12-03T11:05:28.300Z,9.43
2022-12-03T11:07:56.865Z,7.40
2022-12-03T11:10:24.949Z,2.97
2022-12-03T11:13:45.716Z,8.77
2022-12-03T11:16:14.983Z,7.40
2022-12-03T11:19:03.113Z,5.88
2022-12-03T11:21:31.388Z,7.07
2022-12-03T11:24:20.894Z,4.68
2022-12-03T11:27:20.512Z,6.95
2022-12-03T11:30:00.310Z,6.78
2022-12-03T11:33:03.672Z,8.85
2022-12-03T11:35:38.027Z,9.05
2022-12-03T11:38:49.146Z,8.35
2022-12-03T11:41:21.605Z,5.80
2022-12-03T11:46:30.710Z,9.93
2022-12-03T11:49:00.721Z,7.45
2022-12-03T11:51:31.079Z,4.13
2022-12-03T11:54:00.634Z,6.22
2022-12-03T11:56:31.268Z,6.28
2022-12-03T11:59:00.972Z,6.95
2022-12-03T12:01:40.515Z,4.47
2022-12-03T12:04:09.690Z,6.60
2022-12-03T12:06:42.563Z,6.60
2022-12-03T12:09:10.508Z,6.72
2022-12-03T12:11:41.388Z,7.72
2022-12-03T12:14:10.750Z,10.70
2022-12-03T12:16:45.941Z,4.72
2022-12-03T12:19:36.831Z,5.90
2022-12-03T12:22:18.731Z,6.55
2022-12-03T12:24:51.343Z,7.43
2022-12-03T12:27:21.445Z,5.57
2022-12-03T12:29:53.668Z,6.90
2022-12-03T12:32:27.370Z,6.38
2022-12-03T12:34:58.100Z,6.88
2022-12-03T12:37:32.160Z,8.00
2022-12-03T12:40:01.486Z,6.47
2022-12-03T12:42:32.614Z,4.30
2022-12-03T12:45:06.196Z,6.60
2022-12-03T12:47:35.921Z,7.13
2022-12-03T12:50:10.193Z,5.40
2022-12-03T12:52:41.728Z,2.22
2022-12-03T12:55:10.865Z,4.47
2022-12-03T13:00:07.041Z,3.65
2022-12-03T13:02:44.336Z,7.07
2022-12-03T13:05:13.716Z,2.83
2022-12-03T13:07:42.769Z,6.80
2022-12-03T13:12:58.668Z,5.20
2022-12-03T13:15:42.952Z,6.32
2022-12-03T13:18:22.558Z,8.30
2022-12-03T13:20:50.170Z,5.80
2022-12-03T13:23:30.236Z,4.30
2022-12-03T13:26:06.576Z,5.78
2022-12-03T13:28:36.953Z,4.60
2022-12-03T13:31:21.767Z,6.50
2022-12-03T13:33:51.543Z,7.60
2022-12-03T13:36:21.720Z,3.78
2022-12-03T13:38:50.067Z,5.95
2022-12-03T13:41:38.788Z,4.95
2022-12-03T13:44:24.243Z,5.20
2022-12-03T13:46:51.683Z,5.10
2022-12-03T13:49:23.042Z,6.22
2022-12-03T13:51:52.216Z,5.55
2022-12-03T13:54:23.085Z,1.70
2022-12-03T13:56:51.016Z,5.53
2022-12-03T13:59:24.475Z,6.25
2022-12-03T14:01:53.810Z,5.25
2022-12-03T14:04:22.611Z,5.95
2022-12-03T14:06:50.087Z,4.60
2022-12-03T14:09:17.522Z,5.90
2022-12-03T14:12:02.651Z,5.70
2022-12-03T14:14:30.093Z,5.10
2022-12-03T14:17:00.090Z,5.55
2022-12-03T14:19:29.187Z,5.38
2022-12-03T14:21:56.673Z,4.25
2022-12-03T14:24:24.153Z,5.47
2022-12-03T14:26:51.575Z,4.65
2022-12-03T14:29:19.029Z,4.57
2022-12-03T14:31:46.525Z,3.08
2022-12-03T14:34:14.006Z,2.28
2022-12-03T14:36:43.009Z,4.35
2022-12-03T14:39:10.561Z,4.88
2022-12-03T14:41:55.480Z,3.38
2022-12-03T14:44:23.492Z,5.45
2022-12-03T14:46:56.611Z,2.47
2022-12-03T14:49:24.775Z,2.95
2022-12-03T14:51:53.555Z,4.72
2022-12-03T14:54:21.224Z,4.78
2022-12-03T14:56:48.751Z,2.75
2022-12-03T14:59:16.473Z,4.45
2022-12-03T15:01:43.962Z,3.05
2022-12-03T15:04:12.060Z,4.57
2022-12-03T15:06:39.581Z,5.38
2022-12-03T15:09:08.495Z,4.40
2022-12-03T15:11:40.160Z,5.45
2022-12-03T15:14:10.424Z,5.80
2022-12-03T15:16:37.913Z,5.63
2022-12-03T15:19:05.408Z,7.47
2022-12-03T15:21:34.778Z,5.95
2022-12-03T15:24:02.397Z,4.90
2022-12-03T15:26:31.205Z,4.50
2022-12-03T15:28:58.649Z,4.93
2022-12-03T15:31:26.170Z,4.20
2022-12-03T15:33:53.626Z,4.85
2022-12-03T15:36:21.138Z,5.10
2022-12-03T15:38:48.565Z,3.53
2022-12-03T15:41:24.267Z,4.82
2022-12-03T15:43:53.183Z,3.72
2022-12-03T15:46:20.859Z,4.05
2022-12-03T15:48:49.020Z,5.63
2022-12-03T15:51:16.997Z,2.40
2022-12-03T15:53:44.533Z,3.38
2022-12-03T15:56:12.748Z,3.60
2022-12-03T15:58:40.635Z,4.00
2022-12-03T16:01:10.362Z,4.35
2022-12-03T16:03:38.055Z,4.40
2022-12-03T16:06:06.118Z,5.68
2022-12-03T16:08:33.563Z,4.57
2022-12-03T16:11:01.003Z,3.03
2022-12-03T16:13:28.515Z,1.80
2022-12-03T16:15:56.021Z,5.28
2022-12-03T16:18:24.844Z,4.95
2022-12-03T16:20:52.362Z,4.75
2022-12-03T16:23:19.845Z,3.50
2022-12-03T16:25:47.363Z,3.92
2022-12-03T16:28:14.840Z,4.95
2022-12-03T16:30:42.526Z,5.43
2022-12-03T16:33:10.044Z,6.10
2022-12-03T16:35:38.873Z,5.97
2022-12-03T16:38:06.390Z,4.30
2022-12-03T16:40:33.847Z,5.68
2022-12-03T16:43:03.208Z,4.35
2022-12-03T16:45:48.496Z,8.52
2022-12-03T16:48:16.158Z,6.22
2022-12-03T16:50:44.966Z,6.18
2022-12-03T16:53:12.797Z,4.53
2022-12-03T16:55:40.475Z,7.20
2022-12-03T16:58:10.023Z,6.70
2022-12-03T17:00:37.451Z,4.28
2022-12-03T17:03:04.985Z,3.45
2022-12-03T17:05:33.432Z,2.70
2022-12-03T17:08:02.291Z,2.72
2022-12-03T17:10:29.968Z,1.17
2022-12-03T17:13:12.960Z,6.05
2022-12-03T17:15:40.537Z,6.13
2022-12-03T17:18:08.891Z,6.18
2022-12-03T17:20:37.189Z,5.15
2022-12-03T17:23:06.008Z,5.20
2022-12-03T17:25:34.256Z,5.47
2022-12-03T17:28:01.751Z,4.80
2022-12-03T17:30:29.247Z,6.25
2022-12-03T17:32:56.689Z,6.13
2022-12-03T17:35:24.964Z,5.10
2022-12-03T17:37:52.465Z,5.55
2022-12-03T17:40:21.277Z,4.88
2022-12-03T17:42:48.738Z,5.07
2022-12-03T17:45:16.191Z,5.25
2022-12-03T17:47:43.672Z,6.53
2022-12-03T17:50:11.794Z,5.95
2022-12-03T17:52:39.265Z,4.55
2022-12-03T17:55:15.793Z,5.65
2022-12-03T17:57:50.319Z,5.65
2022-12-03T18:00:18.132Z,3.55
2022-12-03T18:02:45.587Z,3.45
2022-12-03T18:05:13.986Z,6.82
2022-12-03T18:07:41.541Z,6.28
2022-12-03T18:10:09.745Z,5.40
2022-12-03T18:12:37.218Z,6.88
2022-12-03T18:15:06.882Z,5.65
2022-12-03T18:17:34.385Z,5.47
2022-12-03T18:20:01.954Z,2.70
2022-12-03T18:22:29.640Z,5.85
2022-12-03T18:24:57.178Z,5.90
2022-12-03T18:27:24.856Z,4.15
2022-12-03T18:29:52.949Z,5.15
2022-12-03T18:32:30.172Z,6.63
2022-12-03T18:34:58.019Z,5.78
2022-12-03T18:37:27.901Z,5.72
2022-12-03T18:39:56.385Z,6.00
2022-12-03T18:42:24.544Z,5.20
2022-12-03T18:44:55.983Z,6.28
2022-12-03T18:47:28.230Z,6.57
2022-12-03T18:49:56.525Z,3.13
2022-12-03T18:52:24.831Z,5.25
2022-12-03T18:54:52.895Z,6.13
2022-12-03T18:57:20.359Z,4.75
2022-12-03T18:59:47.888Z,3.63
2022-12-03T19:02:46.124Z,4.78
2022-12-03T19:05:08.779Z,4.57
2022-12-03T19:07:38.443Z,2.95
2022-12-03T19:10:06.957Z,6.50
2022-12-03T19:12:34.645Z,5.72
2022-12-03T19:15:02.565Z,4.63
2022-12-03T19:17:30.037Z,5.55
2022-12-03T19:19:57.829Z,2.85
2022-12-03T19:22:26.875Z,4.75
2022-12-03T19:24:54.319Z,5.45
2022-12-03T19:27:21.812Z,4.28
2022-12-03T19:29:49.634Z,4.95
2022-12-03T19:32:17.204Z,4.28
2022-12-03T19:34:44.642Z,6.10
2022-12-03T19:37:12.074Z,4.38
2022-12-03T19:39:40.971Z,7.07
2022-12-03T19:42:08.454Z,5.90
2022-12-03T19:44:35.959Z,4.95
2022-12-03T19:47:03.818Z,3.00
2022-12-03T19:49:31.341Z,6.00
2022-12-03T19:51:58.818Z,3.20
2022-12-03T19:54:26.315Z,4.80
2022-12-03T19:56:55.112Z,4.78
2022-12-03T19:59:22.545Z,4.97
2022-12-03T20:01:50.087Z,5.25
2022-12-03T20:04:17.631Z,4.22
2022-12-03T20:06:45.336Z,4.38
2022-12-03T20:09:17.143Z,4.68
2022-12-03T20:11:45.754Z,5.28
2022-12-03T20:14:17.012Z,5.45
2022-12-03T20:16:45.397Z,5.65
2022-12-03T20:19:18.544Z,4.47
2022-12-03T20:21:46.237Z,5.30
2022-12-03T20:24:16.204Z,4.95
2022-12-03T20:26:43.698Z,5.30
2022-12-03T20:29:11.168Z,4.05
2022-12-03T20:31:40.182Z,4.78
2022-12-03T20:36:35.059Z,3.33
2022-12-03T20:39:05.803Z,4.30
2022-12-03T20:41:35.822Z,4.00
2022-12-03T20:44:03.368Z,3.45
2022-12-03T20:46:32.390Z,2.58
2022-12-03T20:49:01.465Z,3.35
2022-12-03T20:51:30.618Z,3.53
2022-12-03T20:58:59.732Z,5.63
2022-12-03T21:01:28.757Z,5.47
2022-12-03T21:06:27.779Z,1.27
2022-12-03T21:08:57.762Z,1.95
2022-12-03T21:11:26.832Z,3.70
2022-12-03T21:16:52.002Z,2.70
2022-12-03T21:19:13.255Z,2.58
2022-12-03T21:21:42.033Z,1.33
2022-12-03T21:24:09.541Z,4.88
2022-12-03T21:26:37.248Z,2.97
2022-12-03T21:29:04.712Z,5.57
2022-12-03T21:31:32.390Z,4.00
2022-12-03T21:34:00.200Z,5.20
2022-12-03T21:36:27.685Z,4.88
2022-12-03T21:38:56.647Z,4.50
2022-12-03T21:41:24.171Z,3.17
2022-12-03T21:43:52.072Z,4.00
2022-12-03T21:47:12.689Z,3.22
2022-12-03T21:49:07.824Z,4.00
2022-12-03T21:51:35.303Z,5.22
2022-12-03T21:54:04.212Z,4.82
2022-12-03T21:56:32.885Z,6.13
2022-12-03T21:59:00.348Z,4.80
2022-12-03T22:01:27.913Z,3.78
2022-12-03T22:03:56.974Z,5.25
2022-12-03T22:06:24.582Z,3.17
2022-12-03T22:08:52.083Z,4.47
2022-12-03T22:11:23.166Z,4.05
2022-12-03T22:13:51.179Z,2.10
2022-12-03T22:16:20.516Z,3.70
2022-12-03T22:18:48.495Z,6.00
2022-12-03T22:21:18.271Z,3.03
2022-12-03T22:23:45.951Z,3.40
2022-12-03T22:26:15.982Z,3.17
2022-12-03T22:28:46.184Z,4.95
2022-12-03T22:31:14.831Z,5.35
2022-12-03T22:33:43.382Z,4.95
2022-12-03T22:36:19.910Z,4.68
2022-12-03T22:38:49.022Z,5.28
2022-12-03T22:41:16.838Z,4.10
2022-12-03T22:43:45.870Z,5.75
2022-12-03T22:51:13.958Z,3.67
2022-12-03T22:53:41.465Z,5.45
2022-12-03T22:56:09.335Z,3.40
2022-12-03T22:58:38.558Z,6.20
2022-12-03T23:01:08.557Z,3.60
2022-12-03T23:03:36.999Z,8.75
2022-12-03T23:06:10.508Z,5.30
2022-12-03T23:08:38.007Z,5.53
2022-12-03T23:11:05.817Z,2.65
2022-12-03T23:13:33.288Z,5.45
2022-12-03T23:16:01.389Z,5.53
2022-12-03T23:18:30.331Z,4.65
2022-12-03T23:20:58.312Z,5.35
2022-12-03T23:23:28.655Z,4.18
2022-12-03T23:25:59.681Z,4.70
2022-12-03T23:28:28.691Z,2.78
2022-12-03T23:33:24.097Z,3.13
2022-12-03T23:35:52.921Z,2.75
2022-12-03T23:38:20.384Z,4.25
2022-12-03T23:40:48.624Z,4.55
2022-12-03T23:43:16.298Z,5.45
2022-12-03T23:45:43.787Z,3.92
2022-12-03T23:48:11.301Z,4.82
2022-12-03T23:50:40.128Z,3.97
2022-12-03T23:53:09.015Z,5.45
2022-12-03T23:55:40.053Z,4.13
2022-12-03T23:58:07.568Z,4.68
